sensor_id;sensor_type;location;lat;lon;timestamp;temperature;humidity
6696;DHT22;3385;48.928;10.330;2023-06-19T00:02:03;20.20;99.90
6696;DHT22;3385;48.928;10.330;2023-06-19T00:04:29;20.10;99.90
6696;DHT22;3385;48.928;10.330;2023-06-19T00:06:55;20.00;99.90
6696;DHT22;3385;48.928;10.330;2023-06-19T00:09:21;19.90;99.90
6696;DHT22;3385;48.928;10.330;2023-06-19T00:11:46;20.00;99.90
6696;DHT22;3385;48.928;10.330;2023-06-19T00:14:12;20.00;99.90
6696;DHT22;3385;48.928;10.330;2023-06-19T00:16:38;20.00;99.90
6696;DHT22;3385;48.928;10.330;2023-06-19T00:19:05;20.10;99.90
6696;DHT22;3385;48.928;10.330;2023-06-19T00:21:31;20.20;99.90
6696;DHT22;3385;48.928;10.330;2023-06-19T00:23:57;20.20;99.90
6696;DHT22;3385;48.928;10.330;2023-06-19T00:26:22;20.20;99.90
6696;DHT22;3385;48.928;10.330;2023-06-19T00:28:49;20.20;99.90
6696;DHT22;3385;48.928;10.330;2023-06-19T00:31:15;20.10;99.90
6696;DHT22;3385;48.928;10.330;2023-06-19T00:33:45;20.00;99.90
6696;DHT22;3385;48.928;10.330;2023-06-19T00:36:15;20.00;99.90
6696;DHT22;3385;48.928;10.330;2023-06-19T00:38:41;20.00;99.90
6696;DHT22;3385;48.928;10.330;2023-06-19T00:41:08;20.00;99.90
6696;DHT22;3385;48.928;10.330;2023-06-19T00:43:34;20.00;99.90
6696;DHT22;3385;48.928;10.330;2023-06-19T00:46:00;20.00;99.90
6696;DHT22;3385;48.928;10.330;2023-06-19T00:48:31;20.00;99.90
6696;DHT22;3385;48.928;10.330;2023-06-19T00:50:58;19.90;99.90
6696;DHT22;3385;48.928;10.330;2023-06-19T00:53:24;19.90;99.90
6696;DHT22;3385;48.928;10.330;2023-06-19T00:55:54;19.80;99.90
6696;DHT22;3385;48.928;10.330;2023-06-19T00:58:23;19.90;99.90
6696;DHT22;3385;48.928;10.330;2023-06-19T01:00:50;20.00;99.90
6696;DHT22;3385;48.928;10.330;2023-06-19T01:03:16;20.00;99.90
6696;DHT22;3385;48.928;10.330;2023-06-19T01:05:42;20.00;99.90
6696;DHT22;3385;48.928;10.330;2023-06-19T01:08:24;19.90;99.90
6696;DHT22;3385;48.928;10.330;2023-06-19T01:10:57;19.90;99.90
6696;DHT22;3385;48.928;10.330;2023-06-19T01:13:32;19.90;99.90
6696;DHT22;3385;48.928;10.330;2023-06-19T01:16:01;19.80;99.90
6696;DHT22;3385;48.928;10.330;2023-06-19T01:18:29;19.90;99.90
6696;DHT22;3385;48.928;10.330;2023-06-19T01:20:55;19.80;99.90
6696;DHT22;3385;48.928;10.330;2023-06-19T01:23:21;19.90;99.90
6696;DHT22;3385;48.928;10.330;2023-06-19T01:25:46;20.00;99.90
6696;DHT22;3385;48.928;10.330;2023-06-19T01:28:12;19.90;99.90
6696;DHT22;3385;48.928;10.330;2023-06-19T01:30:42;20.00;99.90
6696;DHT22;3385;48.928;10.330;2023-06-19T01:33:16;20.00;99.90
6696;DHT22;3385;48.928;10.330;2023-06-19T01:35:46;20.00;99.90
6696;DHT22;3385;48.928;10.330;2023-06-19T01:38:13;20.30;99.90
6696;DHT22;3385;48.928;10.330;2023-06-19T01:40:40;20.30;99.90
6696;DHT22;3385;48.928;10.330;2023-06-19T01:43:08;20.20;99.90
6696;DHT22;3385;48.928;10.330;2023-06-19T01:45:34;20.20;99.90
6696;DHT22;3385;48.928;10.330;2023-06-19T01:48:00;20.00;99.90
6696;DHT22;3385;48.928;10.330;2023-06-19T01:50:26;20.10;99.90
6696;DHT22;3385;48.928;10.330;2023-06-19T01:52:52;20.00;99.90
6696;DHT22;3385;48.928;10.330;2023-06-19T01:55:18;19.90;99.90
6696;DHT22;3385;48.928;10.330;2023-06-19T01:57:44;19.80;99.90
6696;DHT22;3385;48.928;10.330;2023-06-19T02:00:11;19.90;99.90
6696;DHT22;3385;48.928;10.330;2023-06-19T02:02:37;19.80;99.90
6696;DHT22;3385;48.928;10.330;2023-06-19T02:05:03;19.80;99.90
6696;DHT22;3385;48.928;10.330;2023-06-19T02:07:30;19.90;99.90
6696;DHT22;3385;48.928;10.330;2023-06-19T02:09:57;19.90;99.90
6696;DHT22;3385;48.928;10.330;2023-06-19T02:12:23;19.80;99.90
6696;DHT22;3385;48.928;10.330;2023-06-19T02:14:48;19.70;99.90
6696;DHT22;3385;48.928;10.330;2023-06-19T02:17:14;19.80;99.90
6696;DHT22;3385;48.928;10.330;2023-06-19T02:19:40;19.80;99.90
6696;DHT22;3385;48.928;10.330;2023-06-19T02:22:06;19.70;99.90
6696;DHT22;3385;48.928;10.330;2023-06-19T02:24:32;19.70;99.90
6696;DHT22;3385;48.928;10.330;2023-06-19T02:26:58;19.70;99.90
6696;DHT22;3385;48.928;10.330;2023-06-19T02:29:24;19.70;99.90
6696;DHT22;3385;48.928;10.330;2023-06-19T02:31:50;19.50;99.90
6696;DHT22;3385;48.928;10.330;2023-06-19T02:34:16;19.50;99.90
6696;DHT22;3385;48.928;10.330;2023-06-19T02:36:42;19.40;99.90
6696;DHT22;3385;48.928;10.330;2023-06-19T02:39:08;19.40;99.90
6696;DHT22;3385;48.928;10.330;2023-06-19T02:41:34;19.40;99.90
6696;DHT22;3385;48.928;10.330;2023-06-19T02:44:00;19.40;99.90
6696;DHT22;3385;48.928;10.330;2023-06-19T02:46:26;19.40;99.90
6696;DHT22;3385;48.928;10.330;2023-06-19T02:48:52;19.40;99.90
6696;DHT22;3385;48.928;10.330;2023-06-19T02:51:18;19.50;99.90
6696;DHT22;3385;48.928;10.330;2023-06-19T02:53:43;19.40;99.90
6696;DHT22;3385;48.928;10.330;2023-06-19T02:56:11;19.50;99.90
6696;DHT22;3385;48.928;10.330;2023-06-19T02:58:37;19.50;99.90
6696;DHT22;3385;48.928;10.330;2023-06-19T03:01:03;19.50;99.90
6696;DHT22;3385;48.928;10.330;2023-06-19T03:03:29;19.30;99.90
6696;DHT22;3385;48.928;10.330;2023-06-19T03:05:56;19.30;99.90
6696;DHT22;3385;48.928;10.330;2023-06-19T03:08:21;19.20;99.90
6696;DHT22;3385;48.928;10.330;2023-06-19T03:10:47;19.40;99.90
6696;DHT22;3385;48.928;10.330;2023-06-19T03:13:13;19.70;99.90
6696;DHT22;3385;48.928;10.330;2023-06-19T03:15:39;20.10;99.90
6696;DHT22;3385;48.928;10.330;2023-06-19T03:18:05;20.40;99.90
6696;DHT22;3385;48.928;10.330;2023-06-19T03:20:33;20.80;99.90
6696;DHT22;3385;48.928;10.330;2023-06-19T03:22:58;20.70;99.90
6696;DHT22;3385;48.928;10.330;2023-06-19T03:25:24;20.70;99.90
6696;DHT22;3385;48.928;10.330;2023-06-19T03:27:50;20.80;99.90
6696;DHT22;3385;48.928;10.330;2023-06-19T03:30:15;20.70;99.90
6696;DHT22;3385;48.928;10.330;2023-06-19T03:32:44;20.70;99.90
6696;DHT22;3385;48.928;10.330;2023-06-19T03:35:09;20.70;99.90
6696;DHT22;3385;48.928;10.330;2023-06-19T03:37:36;20.70;99.90
6696;DHT22;3385;48.928;10.330;2023-06-19T03:40:02;20.80;99.90
6696;DHT22;3385;48.928;10.330;2023-06-19T03:42:28;20.90;99.90
6696;DHT22;3385;48.928;10.330;2023-06-19T03:44:54;20.90;99.90
6696;DHT22;3385;48.928;10.330;2023-06-19T03:47:21;20.90;99.90
6696;DHT22;3385;48.928;10.330;2023-06-19T03:49:46;21.10;99.90
6696;DHT22;3385;48.928;10.330;2023-06-19T03:52:14;21.00;99.90
6696;DHT22;3385;48.928;10.330;2023-06-19T03:54:39;21.10;99.90
6696;DHT22;3385;48.928;10.330;2023-06-19T03:57:05;21.00;99.90
6696;DHT22;3385;48.928;10.330;2023-06-19T03:59:31;21.00;99.90
6696;DHT22;3385;48.928;10.330;2023-06-19T04:01:57;21.00;99.90
6696;DHT22;3385;48.928;10.330;2023-06-19T04:04:23;21.10;99.90
6696;DHT22;3385;48.928;10.330;2023-06-19T04:06:49;21.10;99.90
6696;DHT22;3385;48.928;10.330;2023-06-19T04:09:15;21.20;99.90
6696;DHT22;3385;48.928;10.330;2023-06-19T04:11:41;21.30;99.90
6696;DHT22;3385;48.928;10.330;2023-06-19T04:14:07;21.20;99.90
6696;DHT22;3385;48.928;10.330;2023-06-19T04:16:32;21.20;99.90
6696;DHT22;3385;48.928;10.330;2023-06-19T04:18:58;21.20;99.90
6696;DHT22;3385;48.928;10.330;2023-06-19T04:21:25;21.30;99.90
6696;DHT22;3385;48.928;10.330;2023-06-19T04:23:51;21.50;99.90
6696;DHT22;3385;48.928;10.330;2023-06-19T04:26:17;21.50;99.90
6696;DHT22;3385;48.928;10.330;2023-06-19T04:28:43;21.60;99.90
6696;DHT22;3385;48.928;10.330;2023-06-19T04:31:09;21.60;99.90
6696;DHT22;3385;48.928;10.330;2023-06-19T04:33:35;21.70;99.90
6696;DHT22;3385;48.928;10.330;2023-06-19T04:36:00;21.70;99.90
6696;DHT22;3385;48.928;10.330;2023-06-19T04:38:26;21.70;99.90
6696;DHT22;3385;48.928;10.330;2023-06-19T04:40:52;21.90;99.90
6696;DHT22;3385;48.928;10.330;2023-06-19T04:43:18;21.90;99.90
6696;DHT22;3385;48.928;10.330;2023-06-19T04:45:44;22.10;99.90
6696;DHT22;3385;48.928;10.330;2023-06-19T04:48:10;22.30;99.90
6696;DHT22;3385;48.928;10.330;2023-06-19T04:50:37;22.20;99.90
6696;DHT22;3385;48.928;10.330;2023-06-19T04:53:03;22.10;99.90
6696;DHT22;3385;48.928;10.330;2023-06-19T04:55:28;22.20;99.90
6696;DHT22;3385;48.928;10.330;2023-06-19T04:57:54;22.10;99.90
6696;DHT22;3385;48.928;10.330;2023-06-19T05:00:20;22.20;99.90
6696;DHT22;3385;48.928;10.330;2023-06-19T05:02:49;22.30;99.90
6696;DHT22;3385;48.928;10.330;2023-06-19T05:05:15;22.30;99.90
6696;DHT22;3385;48.928;10.330;2023-06-19T05:07:41;22.30;99.90
6696;DHT22;3385;48.928;10.330;2023-06-19T05:10:08;22.30;99.90
6696;DHT22;3385;48.928;10.330;2023-06-19T05:12:37;22.30;99.90
6696;DHT22;3385;48.928;10.330;2023-06-19T05:15:03;22.30;99.90
6696;DHT22;3385;48.928;10.330;2023-06-19T05:17:29;22.30;99.90
6696;DHT22;3385;48.928;10.330;2023-06-19T05:19:54;22.20;99.90
6696;DHT22;3385;48.928;10.330;2023-06-19T05:22:20;22.30;99.90
6696;DHT22;3385;48.928;10.330;2023-06-19T05:24:47;22.30;99.90
6696;DHT22;3385;48.928;10.330;2023-06-19T05:27:13;22.30;99.90
6696;DHT22;3385;48.928;10.330;2023-06-19T05:29:39;22.20;99.90
6696;DHT22;3385;48.928;10.330;2023-06-19T05:32:05;22.30;99.90
6696;DHT22;3385;48.928;10.330;2023-06-19T05:34:30;22.30;99.90
6696;DHT22;3385;48.928;10.330;2023-06-19T05:36:57;22.30;99.90
6696;DHT22;3385;48.928;10.330;2023-06-19T05:39:23;22.40;99.90
6696;DHT22;3385;48.928;10.330;2023-06-19T05:41:48;22.30;99.90
6696;DHT22;3385;48.928;10.330;2023-06-19T05:44:14;22.30;99.90
6696;DHT22;3385;48.928;10.330;2023-06-19T05:46:44;22.30;99.90
6696;DHT22;3385;48.928;10.330;2023-06-19T05:49:10;22.30;99.90
6696;DHT22;3385;48.928;10.330;2023-06-19T05:51:36;22.20;99.90
6696;DHT22;3385;48.928;10.330;2023-06-19T05:54:01;22.00;99.90
6696;DHT22;3385;48.928;10.330;2023-06-19T05:56:32;22.00;99.90
6696;DHT22;3385;48.928;10.330;2023-06-19T05:58:59;22.10;99.90
6696;DHT22;3385;48.928;10.330;2023-06-19T06:01:25;22.10;99.90
6696;DHT22;3385;48.928;10.330;2023-06-19T06:03:54;22.10;99.90
6696;DHT22;3385;48.928;10.330;2023-06-19T06:06:20;22.10;99.90
6696;DHT22;3385;48.928;10.330;2023-06-19T06:08:45;22.00;99.90
6696;DHT22;3385;48.928;10.330;2023-06-19T06:11:11;21.90;99.90
6696;DHT22;3385;48.928;10.330;2023-06-19T06:13:37;21.90;99.90
6696;DHT22;3385;48.928;10.330;2023-06-19T06:16:03;22.00;99.90
6696;DHT22;3385;48.928;10.330;2023-06-19T06:18:28;21.90;99.90
6696;DHT22;3385;48.928;10.330;2023-06-19T06:20:54;21.90;99.90
6696;DHT22;3385;48.928;10.330;2023-06-19T06:23:20;21.40;99.90
6696;DHT22;3385;48.928;10.330;2023-06-19T06:25:45;21.90;99.90
6696;DHT22;3385;48.928;10.330;2023-06-19T06:28:12;22.20;99.90
6696;DHT22;3385;48.928;10.330;2023-06-19T06:30:37;22.10;99.90
6696;DHT22;3385;48.928;10.330;2023-06-19T06:33:04;22.00;99.90
6696;DHT22;3385;48.928;10.330;2023-06-19T06:35:30;21.90;99.90
6696;DHT22;3385;48.928;10.330;2023-06-19T06:37:55;22.00;99.90
6696;DHT22;3385;48.928;10.330;2023-06-19T06:40:21;22.00;99.90
6696;DHT22;3385;48.928;10.330;2023-06-19T06:42:47;22.10;99.90
6696;DHT22;3385;48.928;10.330;2023-06-19T06:45:13;22.00;99.90
6696;DHT22;3385;48.928;10.330;2023-06-19T06:47:39;22.10;99.90
6696;DHT22;3385;48.928;10.330;2023-06-19T06:50:08;22.00;99.90
6696;DHT22;3385;48.928;10.330;2023-06-19T06:52:35;22.00;99.90
6696;DHT22;3385;48.928;10.330;2023-06-19T06:55:01;22.00;99.90
6696;DHT22;3385;48.928;10.330;2023-06-19T06:57:26;22.20;99.90
6696;DHT22;3385;48.928;10.330;2023-06-19T06:59:52;22.20;99.90
6696;DHT22;3385;48.928;10.330;2023-06-19T07:02:18;22.20;99.90
6696;DHT22;3385;48.928;10.330;2023-06-19T07:04:43;22.40;99.90
6696;DHT22;3385;48.928;10.330;2023-06-19T07:07:09;22.50;99.90
6696;DHT22;3385;48.928;10.330;2023-06-19T07:09:35;22.50;99.90
6696;DHT22;3385;48.928;10.330;2023-06-19T07:12:01;22.60;99.90
6696;DHT22;3385;48.928;10.330;2023-06-19T07:14:30;22.80;99.90
6696;DHT22;3385;48.928;10.330;2023-06-19T07:16:55;22.90;99.90
6696;DHT22;3385;48.928;10.330;2023-06-19T07:19:21;23.00;99.90
6696;DHT22;3385;48.928;10.330;2023-06-19T07:21:49;23.20;99.90
6696;DHT22;3385;48.928;10.330;2023-06-19T07:24:15;23.10;99.90
6696;DHT22;3385;48.928;10.330;2023-06-19T07:26:40;23.40;99.90
6696;DHT22;3385;48.928;10.330;2023-06-19T07:29:06;23.60;99.90
6696;DHT22;3385;48.928;10.330;2023-06-19T07:31:32;23.80;99.90
6696;DHT22;3385;48.928;10.330;2023-06-19T07:33:58;23.80;99.90
6696;DHT22;3385;48.928;10.330;2023-06-19T07:36:23;24.10;99.90
6696;DHT22;3385;48.928;10.330;2023-06-19T07:38:49;24.10;99.90
6696;DHT22;3385;48.928;10.330;2023-06-19T07:41:15;24.40;99.90
6696;DHT22;3385;48.928;10.330;2023-06-19T07:43:40;24.70;99.90
6696;DHT22;3385;48.928;10.330;2023-06-19T07:46:06;25.00;99.90
6696;DHT22;3385;48.928;10.330;2023-06-19T07:48:32;25.10;99.90
6696;DHT22;3385;48.928;10.330;2023-06-19T07:50:57;25.10;99.90
6696;DHT22;3385;48.928;10.330;2023-06-19T07:53:23;24.90;99.90
6696;DHT22;3385;48.928;10.330;2023-06-19T07:55:49;24.90;99.90
6696;DHT22;3385;48.928;10.330;2023-06-19T07:58:15;24.80;99.90
6696;DHT22;3385;48.928;10.330;2023-06-19T08:00:40;24.80;99.90
6696;DHT22;3385;48.928;10.330;2023-06-19T08:03:06;24.80;99.90
6696;DHT22;3385;48.928;10.330;2023-06-19T08:05:32;24.80;99.90
6696;DHT22;3385;48.928;10.330;2023-06-19T08:08:00;24.90;99.90
6696;DHT22;3385;48.928;10.330;2023-06-19T08:10:27;24.90;99.90
6696;DHT22;3385;48.928;10.330;2023-06-19T08:12:53;24.80;99.90
6696;DHT22;3385;48.928;10.330;2023-06-19T08:15:18;24.80;99.90
6696;DHT22;3385;48.928;10.330;2023-06-19T08:17:44;24.80;99.90
6696;DHT22;3385;48.928;10.330;2023-06-19T08:20:11;24.80;99.90
6696;DHT22;3385;48.928;10.330;2023-06-19T08:22:37;24.90;99.90
6696;DHT22;3385;48.928;10.330;2023-06-19T08:25:04;24.90;99.90
6696;DHT22;3385;48.928;10.330;2023-06-19T08:27:30;25.10;99.90
6696;DHT22;3385;48.928;10.330;2023-06-19T08:29:55;25.40;99.90
6696;DHT22;3385;48.928;10.330;2023-06-19T08:32:21;25.70;99.90
6696;DHT22;3385;48.928;10.330;2023-06-19T08:34:47;25.90;99.90
6696;DHT22;3385;48.928;10.330;2023-06-19T08:37:13;26.10;99.90
6696;DHT22;3385;48.928;10.330;2023-06-19T08:39:38;26.20;99.90
6696;DHT22;3385;48.928;10.330;2023-06-19T08:42:08;26.50;99.90
6696;DHT22;3385;48.928;10.330;2023-06-19T08:44:37;26.60;99.90
6696;DHT22;3385;48.928;10.330;2023-06-19T08:47:03;26.70;99.90
6696;DHT22;3385;48.928;10.330;2023-06-19T08:49:30;26.80;99.90
6696;DHT22;3385;48.928;10.330;2023-06-19T08:51:57;26.70;99.90
6696;DHT22;3385;48.928;10.330;2023-06-19T08:54:22;26.60;99.90
6696;DHT22;3385;48.928;10.330;2023-06-19T08:56:48;26.60;99.90
6696;DHT22;3385;48.928;10.330;2023-06-19T08:59:16;26.60;99.90
6696;DHT22;3385;48.928;10.330;2023-06-19T09:01:52;26.70;99.90
6696;DHT22;3385;48.928;10.330;2023-06-19T09:04:28;26.70;99.90
6696;DHT22;3385;48.928;10.330;2023-06-19T09:06:58;26.60;99.90
6696;DHT22;3385;48.928;10.330;2023-06-19T09:09:26;26.40;99.90
6696;DHT22;3385;48.928;10.330;2023-06-19T09:12:05;26.10;99.90
6696;DHT22;3385;48.928;10.330;2023-06-19T09:16:58;25.80;99.90
6696;DHT22;3385;48.928;10.330;2023-06-19T09:19:24;25.90;99.90
6696;DHT22;3385;48.928;10.330;2023-06-19T09:21:50;26.30;99.90
6696;DHT22;3385;48.928;10.330;2023-06-19T09:24:15;26.60;99.90
6696;DHT22;3385;48.928;10.330;2023-06-19T09:26:41;26.90;99.90
6696;DHT22;3385;48.928;10.330;2023-06-19T09:29:11;27.00;99.90
6696;DHT22;3385;48.928;10.330;2023-06-19T09:31:37;27.20;99.90
6696;DHT22;3385;48.928;10.330;2023-06-19T09:34:04;27.40;99.90
6696;DHT22;3385;48.928;10.330;2023-06-19T09:36:32;27.60;99.90
6696;DHT22;3385;48.928;10.330;2023-06-19T09:39:00;27.70;99.90
6696;DHT22;3385;48.928;10.330;2023-06-19T09:41:29;27.70;99.90
6696;DHT22;3385;48.928;10.330;2023-06-19T09:43:56;28.10;99.90
6696;DHT22;3385;48.928;10.330;2023-06-19T09:46:26;28.50;99.90
6696;DHT22;3385;48.928;10.330;2023-06-19T09:49:00;28.50;99.90
6696;DHT22;3385;48.928;10.330;2023-06-19T09:51:37;28.60;99.90
6696;DHT22;3385;48.928;10.330;2023-06-19T09:54:05;28.40;99.90
6696;DHT22;3385;48.928;10.330;2023-06-19T09:56:32;28.40;99.90
6696;DHT22;3385;48.928;10.330;2023-06-19T09:59:00;28.20;99.90
6696;DHT22;3385;48.928;10.330;2023-06-19T10:01:35;28.20;99.90
6696;DHT22;3385;48.928;10.330;2023-06-19T10:04:07;28.20;99.90
6696;DHT22;3385;48.928;10.330;2023-06-19T10:06:45;28.00;99.90
6696;DHT22;3385;48.928;10.330;2023-06-19T10:09:13;27.80;99.90
6696;DHT22;3385;48.928;10.330;2023-06-19T10:11:52;27.80;99.90
6696;DHT22;3385;48.928;10.330;2023-06-19T10:14:20;28.00;99.90
6696;DHT22;3385;48.928;10.330;2023-06-19T10:16:45;28.20;99.90
6696;DHT22;3385;48.928;10.330;2023-06-19T10:19:13;28.20;99.90
6696;DHT22;3385;48.928;10.330;2023-06-19T10:21:48;28.20;99.90
6696;DHT22;3385;48.928;10.330;2023-06-19T10:24:15;28.50;99.90
6696;DHT22;3385;48.928;10.330;2023-06-19T10:26:44;28.60;99.90
6696;DHT22;3385;48.928;10.330;2023-06-19T10:29:16;28.60;99.90
6696;DHT22;3385;48.928;10.330;2023-06-19T10:31:43;28.60;99.90
6696;DHT22;3385;48.928;10.330;2023-06-19T10:34:10;28.40;99.90
6696;DHT22;3385;48.928;10.330;2023-06-19T10:36:36;28.50;99.90
6696;DHT22;3385;48.928;10.330;2023-06-19T10:39:01;28.90;99.90
6696;DHT22;3385;48.928;10.330;2023-06-19T10:41:27;28.90;99.90
6696;DHT22;3385;48.928;10.330;2023-06-19T10:46:22;29.00;99.90
6696;DHT22;3385;48.928;10.330;2023-06-19T10:48:50;29.10;99.90
6696;DHT22;3385;48.928;10.330;2023-06-19T10:51:19;29.10;99.90
6696;DHT22;3385;48.928;10.330;2023-06-19T10:53:45;29.10;99.90
6696;DHT22;3385;48.928;10.330;2023-06-19T10:56:11;29.00;99.90
6696;DHT22;3385;48.928;10.330;2023-06-19T10:58:36;28.90;99.90
6696;DHT22;3385;48.928;10.330;2023-06-19T11:01:02;28.90;99.90
6696;DHT22;3385;48.928;10.330;2023-06-19T11:03:28;28.90;99.90
6696;DHT22;3385;48.928;10.330;2023-06-19T11:05:54;29.10;99.90
6696;DHT22;3385;48.928;10.330;2023-06-19T11:08:23;29.30;99.90
6696;DHT22;3385;48.928;10.330;2023-06-19T11:10:50;29.20;99.90
6696;DHT22;3385;48.928;10.330;2023-06-19T11:13:19;29.70;99.90
6696;DHT22;3385;48.928;10.330;2023-06-19T11:15:47;30.00;99.90
6696;DHT22;3385;48.928;10.330;2023-06-19T11:18:16;30.30;99.90
6696;DHT22;3385;48.928;10.330;2023-06-19T11:20:49;30.60;99.90
6696;DHT22;3385;48.928;10.330;2023-06-19T11:23:26;30.70;99.90
6696;DHT22;3385;48.928;10.330;2023-06-19T11:25:52;30.70;99.90
6696;DHT22;3385;48.928;10.330;2023-06-19T11:28:18;30.70;99.90
6696;DHT22;3385;48.928;10.330;2023-06-19T11:30:48;30.80;99.90
6696;DHT22;3385;48.928;10.330;2023-06-19T11:33:20;30.80;99.90
6696;DHT22;3385;48.928;10.330;2023-06-19T11:35:50;30.80;99.90
6696;DHT22;3385;48.928;10.330;2023-06-19T11:38:21;30.80;99.90
6696;DHT22;3385;48.928;10.330;2023-06-19T11:40:47;31.00;99.90
6696;DHT22;3385;48.928;10.330;2023-06-19T11:43:30;31.10;99.90
6696;DHT22;3385;48.928;10.330;2023-06-19T11:46:02;31.00;99.90
6696;DHT22;3385;48.928;10.330;2023-06-19T11:48:28;30.80;99.90
6696;DHT22;3385;48.928;10.330;2023-06-19T11:50:54;30.50;99.90
6696;DHT22;3385;48.928;10.330;2023-06-19T11:53:21;30.30;99.90
6696;DHT22;3385;48.928;10.330;2023-06-19T11:55:47;30.00;99.90
6696;DHT22;3385;48.928;10.330;2023-06-19T11:58:13;30.00;99.90
6696;DHT22;3385;48.928;10.330;2023-06-19T12:00:41;30.00;99.90
6696;DHT22;3385;48.928;10.330;2023-06-19T12:03:07;30.30;99.90
6696;DHT22;3385;48.928;10.330;2023-06-19T12:05:32;30.20;99.90
6696;DHT22;3385;48.928;10.330;2023-06-19T12:07:58;29.90;99.90
6696;DHT22;3385;48.928;10.330;2023-06-19T12:10:31;29.70;99.90
6696;DHT22;3385;48.928;10.330;2023-06-19T12:12:56;29.90;99.90
6696;DHT22;3385;48.928;10.330;2023-06-19T12:15:22;29.60;99.90
6696;DHT22;3385;48.928;10.330;2023-06-19T12:17:48;29.50;99.90
6696;DHT22;3385;48.928;10.330;2023-06-19T12:20:14;29.20;99.90
6696;DHT22;3385;48.928;10.330;2023-06-19T12:22:40;29.20;99.90
6696;DHT22;3385;48.928;10.330;2023-06-19T12:25:06;29.40;99.90
6696;DHT22;3385;48.928;10.330;2023-06-19T12:27:32;29.50;99.90
6696;DHT22;3385;48.928;10.330;2023-06-19T12:29:58;29.40;99.90
6696;DHT22;3385;48.928;10.330;2023-06-19T12:32:24;29.30;99.90
6696;DHT22;3385;48.928;10.330;2023-06-19T12:34:50;29.40;99.90
6696;DHT22;3385;48.928;10.330;2023-06-19T12:37:19;29.10;99.90
6696;DHT22;3385;48.928;10.330;2023-06-19T12:39:49;28.80;99.90
6696;DHT22;3385;48.928;10.330;2023-06-19T12:42:15;28.30;99.90
6696;DHT22;3385;48.928;10.330;2023-06-19T12:44:41;28.20;99.90
6696;DHT22;3385;48.928;10.330;2023-06-19T12:47:09;28.00;99.90
6696;DHT22;3385;48.928;10.330;2023-06-19T12:49:35;27.40;99.90
6696;DHT22;3385;48.928;10.330;2023-06-19T12:52:01;27.10;99.90
6696;DHT22;3385;48.928;10.330;2023-06-19T12:54:27;27.00;99.90
6696;DHT22;3385;48.928;10.330;2023-06-19T12:56:53;26.80;99.90
6696;DHT22;3385;48.928;10.330;2023-06-19T12:59:19;27.70;99.90
6696;DHT22;3385;48.928;10.330;2023-06-19T13:01:45;29.30;99.90
6696;DHT22;3385;48.928;10.330;2023-06-19T13:04:12;30.80;99.90
6696;DHT22;3385;48.928;10.330;2023-06-19T13:06:38;32.10;99.90
6696;DHT22;3385;48.928;10.330;2023-06-19T13:09:05;33.00;99.90
6696;DHT22;3385;48.928;10.330;2023-06-19T13:11:32;33.10;99.90
6696;DHT22;3385;48.928;10.330;2023-06-19T13:14:02;32.90;99.90
6696;DHT22;3385;48.928;10.330;2023-06-19T13:16:30;31.00;99.90
6696;DHT22;3385;48.928;10.330;2023-06-19T13:18:56;33.70;99.90
6696;DHT22;3385;48.928;10.330;2023-06-19T13:21:22;33.70;99.90
6696;DHT22;3385;48.928;10.330;2023-06-19T13:23:48;33.60;99.90
6696;DHT22;3385;48.928;10.330;2023-06-19T13:26:14;34.90;99.90
6696;DHT22;3385;48.928;10.330;2023-06-19T13:28:40;36.00;99.90
6696;DHT22;3385;48.928;10.330;2023-06-19T13:31:06;37.00;99.90
6696;DHT22;3385;48.928;10.330;2023-06-19T13:33:32;37.80;99.90
6696;DHT22;3385;48.928;10.330;2023-06-19T13:35:57;38.00;99.90
6696;DHT22;3385;48.928;10.330;2023-06-19T13:38:23;38.10;99.90
6696;DHT22;3385;48.928;10.330;2023-06-19T13:40:49;38.40;99.90
6696;DHT22;3385;48.928;10.330;2023-06-19T13:43:15;38.60;99.90
6696;DHT22;3385;48.928;10.330;2023-06-19T13:45:42;38.30;99.90
6696;DHT22;3385;48.928;10.330;2023-06-19T13:48:08;37.60;99.90
6696;DHT22;3385;48.928;10.330;2023-06-19T13:50:34;37.50;99.90
6696;DHT22;3385;48.928;10.330;2023-06-19T13:53:00;37.80;99.90
6696;DHT22;3385;48.928;10.330;2023-06-19T13:55:27;38.40;99.90
6696;DHT22;3385;48.928;10.330;2023-06-19T13:57:53;37.60;99.90
6696;DHT22;3385;48.928;10.330;2023-06-19T14:00:19;36.50;99.90
6696;DHT22;3385;48.928;10.330;2023-06-19T14:02:45;36.20;99.90
6696;DHT22;3385;48.928;10.330;2023-06-19T14:05:11;36.30;99.90
6696;DHT22;3385;48.928;10.330;2023-06-19T14:07:40;36.30;99.90
6696;DHT22;3385;48.928;10.330;2023-06-19T14:10:08;35.90;99.90
6696;DHT22;3385;48.928;10.330;2023-06-19T14:12:34;35.90;99.90
6696;DHT22;3385;48.928;10.330;2023-06-19T14:14:59;35.60;99.90
6696;DHT22;3385;48.928;10.330;2023-06-19T14:17:25;34.50;99.90
6696;DHT22;3385;48.928;10.330;2023-06-19T14:19:51;34.40;99.90
6696;DHT22;3385;48.928;10.330;2023-06-19T14:22:17;33.70;99.90
6696;DHT22;3385;48.928;10.330;2023-06-19T14:24:43;33.60;99.90
6696;DHT22;3385;48.928;10.330;2023-06-19T14:27:09;34.40;99.90
6696;DHT22;3385;48.928;10.330;2023-06-19T14:29:34;35.00;99.90
6696;DHT22;3385;48.928;10.330;2023-06-19T14:32:00;35.50;99.90
6696;DHT22;3385;48.928;10.330;2023-06-19T14:34:26;35.50;99.90
6696;DHT22;3385;48.928;10.330;2023-06-19T14:36:52;35.80;99.90
6696;DHT22;3385;48.928;10.330;2023-06-19T14:39:25;35.90;99.90
6696;DHT22;3385;48.928;10.330;2023-06-19T14:41:51;35.30;99.90
6696;DHT22;3385;48.928;10.330;2023-06-19T14:44:17;34.60;99.90
6696;DHT22;3385;48.928;10.330;2023-06-19T14:46:42;34.90;99.90
6696;DHT22;3385;48.928;10.330;2023-06-19T14:49:12;35.50;99.90
6696;DHT22;3385;48.928;10.330;2023-06-19T14:51:38;35.80;99.90
6696;DHT22;3385;48.928;10.330;2023-06-19T14:54:04;36.00;99.90
6696;DHT22;3385;48.928;10.330;2023-06-19T14:56:30;36.40;99.90
6696;DHT22;3385;48.928;10.330;2023-06-19T14:58:56;36.20;99.90
6696;DHT22;3385;48.928;10.330;2023-06-19T15:01:21;36.10;99.90
6696;DHT22;3385;48.928;10.330;2023-06-19T15:03:47;36.40;99.90
6696;DHT22;3385;48.928;10.330;2023-06-19T15:06:13;36.30;99.90
6696;DHT22;3385;48.928;10.330;2023-06-19T15:08:38;36.40;99.90
6696;DHT22;3385;48.928;10.330;2023-06-19T15:11:04;36.10;99.90
6696;DHT22;3385;48.928;10.330;2023-06-19T15:13:31;36.10;99.90
6696;DHT22;3385;48.928;10.330;2023-06-19T15:15:57;35.70;99.90
6696;DHT22;3385;48.928;10.330;2023-06-19T15:18:24;35.80;99.90
6696;DHT22;3385;48.928;10.330;2023-06-19T15:20:50;35.90;99.90
6696;DHT22;3385;48.928;10.330;2023-06-19T15:23:16;36.10;99.90
6696;DHT22;3385;48.928;10.330;2023-06-19T15:25:41;36.20;99.90
6696;DHT22;3385;48.928;10.330;2023-06-19T15:28:07;36.00;99.90
6696;DHT22;3385;48.928;10.330;2023-06-19T15:30:36;35.70;99.90
6696;DHT22;3385;48.928;10.330;2023-06-19T15:33:02;35.70;99.90
6696;DHT22;3385;48.928;10.330;2023-06-19T15:35:28;35.60;99.90
6696;DHT22;3385;48.928;10.330;2023-06-19T15:37:53;35.20;99.90
6696;DHT22;3385;48.928;10.330;2023-06-19T15:40:26;34.60;99.90
6696;DHT22;3385;48.928;10.330;2023-06-19T15:42:53;34.30;99.90
6696;DHT22;3385;48.928;10.330;2023-06-19T15:45:19;33.70;99.90
6696;DHT22;3385;48.928;10.330;2023-06-19T15:47:44;33.50;99.90